Time;durP1;ratioP1;P1;durP2;ratioP2;P2;SDS_P1;SDS_P2;PMS_P1;PMS_P2;Temp;Humidity;BMP_temperature;BMP_pressure;BME280_temperature;BME280_humidity;BME280_pressure;Samples;Min_cycle;Max_cycle;Signal;HPM_P1;HPM_P2
2022/02/03 00:00:21;;;;;;;11.73;2.73;;;;;;;0.94;87.49;101106.31;5067731;28;20573;-76
2022/02/03 00:02:58;;;;;;;21.58;3.33;;;;;;;0.88;87.51;101112.13;5070115;28;20519;-76
2022/02/03 00:05:41;;;;;;;15.63;2.83;;;;;;;0.81;87.00;101120.47;5067869;28;20064;-76
2022/02/03 00:16:28;;;;;;;10.80;1.73;;;;;;;0.71;87.47;101129.63;5052122;28;20568;-75
2022/02/03 00:24:42;;;;;;;15.20;2.40;;;;;;;0.62;88.09;101135.28;5052936;28;20077;-76
2022/02/03 00:27:18;;;;;;;15.77;2.57;;;;;;;0.62;87.99;101129.19;5070868;28;20028;-76
2022/02/03 00:30:02;;;;;;;18.53;3.23;;;;;;;0.61;88.15;101127.44;5074287;28;20459;-76
2022/02/03 00:48:42;;;;;;;14.47;2.73;;;;;;;0.47;88.00;101150.19;5070467;28;20037;-76
2022/02/03 00:51:07;;;;;;;15.50;2.80;;;;;;;0.44;88.51;101150.94;5072600;28;20037;-75
2022/02/03 00:53:34;;;;;;;17.43;3.27;;;;;;;0.43;88.03;101154.38;5069600;28;20102;-75
2022/02/03 00:56:12;;;;;;;16.38;3.00;;;;;;;0.41;88.25;101158.59;5073058;28;20024;-76
2022/02/03 00:58:52;;;;;;;14.60;2.40;;;;;;;0.39;88.45;101169.72;5073366;28;20051;-76
2022/02/03 01:01:19;;;;;;;14.57;2.70;;;;;;;0.33;88.14;101172.06;5073634;28;20040;-75
2022/02/03 01:03:50;;;;;;;20.23;2.50;;;;;;;0.31;88.47;101176.28;5072751;28;20090;-76
2022/02/03 01:06:17;;;;;;;10.70;1.97;;;;;;;0.27;88.37;101170.06;5073167;28;20185;-76
2022/02/03 01:08:44;;;;;;;15.70;2.43;;;;;;;0.27;89.01;101172.69;5073199;28;20031;-76
2022/02/03 01:11:17;;;;;;;15.80;2.20;;;;;;;0.25;88.75;101170.81;5068994;28;20047;-75
2022/02/03 01:13:51;;;;;;;;;;;;;;;0.22;88.50;101171.56;5073185;28;20033;-76
2022/02/03 01:16:53;;;;;;;16.23;2.57;;;;;;;0.22;88.59;101179.38;5071827;28;20287;-76
2022/02/03 01:19:30;;;;;;;12.20;2.10;;;;;;;0.23;88.85;101175.94;5071347;28;20094;-76
2022/02/03 01:36:56;;;;;;;15.15;2.65;;;;;;;0.42;88.82;101175.97;5053673;28;20147;-75
2022/02/03 01:43:33;;;;;;;9.93;1.87;;;;;;;0.51;87.80;101183.28;5050575;28;20460;-76
2022/02/03 01:46:10;;;;;;;14.73;1.83;;;;;;;0.49;87.72;101178.84;5072439;28;20037;-76
2022/02/03 01:54:00;;;;;;;15.77;2.17;;;;;;;0.31;86.90;101169.38;5068596;28;20089;-76
2022/02/03 01:56:38;;;;;;;14.30;2.40;;;;;;;0.27;86.94;101164.88;5072487;28;20252;-75
2022/02/03 01:59:18;;;;;;;9.87;2.00;;;;;;;0.24;87.29;101166.44;5069021;28;20044;-76
2022/02/03 02:01:44;;;;;;;14.63;2.67;;;;;;;0.17;87.00;101160.97;5072518;28;20039;-76
2022/02/03 02:04:13;;;;;;;15.40;2.30;;;;;;;0.10;87.13;101163.22;5071888;28;20040;-76
2022/02/03 02:07:05;;;;;;;18.90;2.40;;;;;;;0.02;86.95;101164.56;5054388;28;20047;-76
2022/02/03 02:09:47;;;;;;;12.53;2.50;;;;;;;-0.04;86.95;101166.06;5052469;28;20032;-76
2022/02/03 02:12:28;;;;;;;;;;;;;;;-0.12;87.56;101166.53;5070336;28;20040;-75
2022/02/03 02:37:24;;;;;;;9.87;2.03;;;;;;;-0.22;89.15;101170.38;5071161;28;20036;-75
2022/02/03 02:43:04;;;;;;;17.63;2.90;;;;;;;0.01;90.06;101147.22;5070998;28;20377;-76
2022/02/03 02:45:48;;;;;;;21.30;2.83;;;;;;;0.21;90.42;101149.94;5086784;28;20119;-75
2022/02/03 02:48:31;;;;;;;17.73;3.27;;;;;;;0.34;90.10;101145.25;5071480;28;20108;-75
2022/02/03 02:51:09;;;;;;;18.63;3.30;;;;;;;0.52;90.10;101137.41;5071550;28;20408;-75
2022/02/03 02:56:36;;;;;;;13.93;2.50;;;;;;;0.76;89.83;101138.50;5067733;28;20070;-75
2022/02/03 02:59:21;;;;;;;13.17;2.53;;;;;;;0.89;88.80;101134.69;5070365;28;20036;-75
2022/02/03 03:28:56;;;;;;;22.10;3.65;;;;;;;1.26;88.55;101134.53;5051669;28;20055;-76
2022/02/03 03:29:05;;;;;;;17.38;3.13;;;;;;;1.65;86.89;101118.75;5069820;28;20036;-76
2022/02/03 03:29:43;;;;;;;12.65;2.60;;;;;;;2.13;85.04;101098.03;5069084;28;20043;-76
2022/02/03 03:32:35;;;;;;;12.55;2.92;;;;;;;2.14;85.15;101097.19;5068245;28;20037;-76
2022/02/03 03:37:46;;;;;;;15.98;3.25;;;;;;;2.25;84.39;101094.09;5046987;28;20139;-76
2022/02/03 03:40:13;;;;;;;13.57;2.53;;;;;;;2.19;84.10;101093.03;5052588;28;20151;-75
2022/02/03 03:42:44;;;;;;;12.63;3.22;;;;;;;2.24;84.52;101092.31;5070897;28;20032;-76
2022/02/03 03:45:10;;;;;;;13.82;2.58;;;;;;;2.29;84.20;101080.34;5070678;28;20096;-76
2022/02/03 03:47:39;;;;;;;17.02;2.75;;;;;;;2.31;84.16;101078.69;5070654;28;20039;-76
2022/02/03 03:50:11;;;;;;;13.43;3.28;;;;;;;2.32;84.00;101070.91;5036251;28;20021;-76
2022/02/03 03:52:45;;;;;;;13.32;2.67;;;;;;;2.37;83.63;101071.09;5070849;28;20033;-75
2022/02/03 03:58:08;;;;;;;16.23;3.47;;;;;;;2.46;83.24;101070.53;5072066;28;20040;-76
2022/02/03 04:30:37;;;;;;;21.38;2.70;;;;;;;2.48;82.94;101069.75;5074301;28;20108;-76
2022/02/03 04:44:22;;;;;;;22.10;3.35;;;;;;;2.80;83.06;101056.94;5071373;28;20064;-75
2022/02/03 05:02:44;;;;;;;15.93;2.63;;;;;;;2.77;82.23;101029.03;5069992;28;20051;-77
2022/02/03 05:05:45;;;;;;;18.00;3.92;;;;;;;2.77;82.53;101028.16;5071772;28;20119;-76
2022/02/03 05:12:14;;;;;;;17.65;3.58;;;;;;;2.78;82.02;101035.16;5068929;28;20077;-76
2022/02/03 05:15:46;;;;;;;13.05;2.92;;;;;;;2.72;81.62;101029.72;5067310;28;20072;-76
2022/02/03 05:18:43;;;;;;;21.50;3.70;;;;;;;2.70;81.78;101029.69;5089033;28;20033;-77
2022/02/03 05:21:39;;;;;;;14.88;2.50;;;;;;;2.59;82.78;101029.34;5072972;28;20070;-77
2022/02/03 05:34:02;;;;;;;13.10;3.55;;;;;;;2.57;82.90;101030.13;5039854;28;20041;-76
2022/02/03 05:43:13;;;;;;;15.27;3.00;;;;;;;2.73;82.53;101021.97;5069276;28;20169;-75
2022/02/03 05:48:42;;;;;;;12.07;2.17;;;;;;;2.85;81.87;101005.84;5070250;28;20456;-76
2022/02/03 05:51:47;;;;;;;14.13;3.03;;;;;;;2.90;81.95;101009.47;5052931;28;20029;-76
2022/02/03 06:05:29;;;;;;;13.85;3.17;;;;;;;3.02;81.46;100999.44;5071609;28;20076;-76
2022/02/03 06:08:16;;;;;;;14.02;2.97;;;;;;;3.05;81.53;100996.06;5072293;28;20048;-75
2022/02/03 06:13:39;;;;;;;12.25;2.38;;;;;;;3.07;81.24;100987.44;5070424;28;20058;-76
2022/02/03 06:16:30;;;;;;;14.35;2.22;;;;;;;3.10;81.16;100993.59;5068844;28;20032;-76
2022/02/03 06:21:41;;;;;;;17.77;2.95;;;;;;;3.11;81.08;100990.16;5067985;28;20062;-75
2022/02/03 06:24:16;;;;;;;22.77;7.32;;;;;;;3.12;80.73;100987.59;5071621;28;20068;-76
2022/02/03 06:29:29;;;;;;;16.75;4.00;;;;;;;3.17;81.07;100990.31;5071482;28;20102;-76
2022/02/03 06:31:54;;;;;;;13.00;2.97;;;;;;;3.19;80.67;100984.31;5071851;28;20041;-76
2022/02/03 06:34:21;;;;;;;11.43;2.22;;;;;;;3.20;80.83;100982.63;5053663;28;20041;-76
2022/02/03 06:36:49;;;;;;;9.13;2.35;;;;;;;3.21;80.41;100981.78;5071798;28;20127;-76
2022/02/03 06:39:18;;;;;;;15.75;2.53;;;;;;;3.21;80.17;100980.03;5064073;28;20098;-76
2022/02/03 06:41:44;;;;;;;11.90;2.58;;;;;;;3.17;80.55;100975.59;5071806;28;20115;-76
2022/02/03 06:44:12;;;;;;;15.52;4.18;;;;;;;3.18;80.63;100979.06;5053534;28;20032;-76
2022/02/03 06:46:39;;;;;;;11.95;3.20;;;;;;;3.19;80.71;100980.84;5071479;28;20029;-75
2022/02/03 06:49:21;;;;;;;13.73;3.90;;;;;;;3.15;80.92;100987.69;5071686;28;20044;-76
2022/02/03 06:51:55;;;;;;;14.68;3.75;;;;;;;3.19;80.34;100981.72;5050149;28;20044;-75
2022/02/03 06:54:30;;;;;;;16.38;3.22;;;;;;;3.22;80.46;100978.31;5071049;28;20045;-76
2022/02/03 06:57:00;;;;;;;14.65;3.10;;;;;;;3.23;80.65;100974.88;5068810;28;20507;-75
2022/02/03 06:59:37;;;;;;;16.02;3.80;;;;;;;3.19;80.36;100975.63;5052999;28;20045;-75
2022/02/03 07:02:04;;;;;;;12.93;3.88;;;;;;;3.20;80.92;100973.06;5068147;28;20431;-75
2022/02/03 07:04:38;;;;;;;16.70;3.78;;;;;;;3.21;80.56;100968.72;5070914;28;20025;-75
2022/02/03 07:07:03;;;;;;;15.43;2.88;;;;;;;3.24;80.52;100968.81;5070997;28;20099;-75
2022/02/03 07:09:30;;;;;;;11.18;4.05;;;;;;;3.29;80.17;100962.03;5070704;28;20048;-75
2022/02/03 07:11:55;;;;;;;20.85;4.07;;;;;;;3.29;80.29;100962.03;5070971;28;20040;-75
2022/02/03 07:14:22;;;;;;;12.60;3.40;;;;;;;3.38;80.16;100962.31;5071140;28;20176;-75
2022/02/03 07:16:49;;;;;;;13.25;2.85;;;;;;;3.49;80.09;100960.00;5072901;28;20127;-76
2022/02/03 07:19:15;;;;;;;12.45;3.65;;;;;;;3.59;79.46;100962.06;5052936;28;20040;-75
2022/02/03 07:21:41;;;;;;;16.35;4.50;;;;;;;3.62;79.21;100950.81;5069179;28;20024;-76
2022/02/03 07:24:06;;;;;;;16.95;5.38;;;;;;;3.71;78.82;100948.47;5069052;28;20579;-75
2022/02/03 07:26:32;;;;;;;10.02;2.53;;;;;;;3.78;78.82;100942.56;5071508;28;20037;-75
2022/02/03 07:28:57;;;;;;;13.45;3.08;;;;;;;3.87;78.18;100942.81;5060098;28;20067;-75
2022/02/03 07:31:22;;;;;;;12.02;3.30;;;;;;;3.97;78.23;100949.19;5068507;28;20511;-76
2022/02/03 07:33:48;;;;;;;13.75;3.10;;;;;;;4.00;76.70;100936.19;5069685;28;20033;-76
2022/02/03 07:36:13;;;;;;;15.00;3.95;;;;;;;4.07;76.74;100942.50;5070143;28;20032;-75
2022/02/03 07:38:39;;;;;;;12.13;2.63;;;;;;;4.17;76.74;100944.50;5070191;28;20032;-75
2022/02/03 07:41:05;;;;;;;13.07;2.92;;;;;;;4.21;76.50;100935.88;5082705;28;20048;-75
2022/02/03 07:43:30;;;;;;;16.60;3.22;;;;;;;4.28;76.70;100935.22;5070960;28;20093;-75
2022/02/03 07:45:57;;;;;;;11.23;3.92;;;;;;;4.28;75.50;100929.97;5069365;28;20127;-76
2022/02/03 07:48:23;;;;;;;14.68;2.10;;;;;;;4.25;75.22;100922.06;5070784;28;20719;-76
2022/02/03 07:50:48;;;;;;;15.00;2.60;;;;;;;4.34;75.80;100916.19;5070773;28;20177;-76
2022/02/03 07:53:14;;;;;;;15.07;3.03;;;;;;;4.38;74.87;100916.31;5070936;28;20045;-76
2022/02/03 07:55:39;;;;;;;11.73;2.70;;;;;;;4.44;75.63;100915.56;5070141;28;20178;-75
2022/02/03 07:58:04;;;;;;;14.65;3.85;;;;;;;4.51;75.45;100914.00;5070699;28;20037;-75
2022/02/03 08:00:30;;;;;;;14.38;3.63;;;;;;;4.52;74.75;100907.91;5071069;28;20028;-76
2022/02/03 08:02:55;;;;;;;8.80;2.33;;;;;;;4.63;75.25;100906.44;5072185;28;20387;-76
2022/02/03 08:05:22;;;;;;;14.98;3.03;;;;;;;4.70;74.25;100902.25;5070567;28;20066;-76
2022/02/03 08:08:07;;;;;;;9.40;2.42;;;;;;;4.78;73.88;100900.69;5070630;28;20103;-76
2022/02/03 08:13:01;;;;;;;11.82;2.70;;;;;;;4.90;73.34;100900.09;5069728;28;20075;-76
2022/02/03 08:15:28;;;;;;;9.98;3.53;;;;;;;4.95;73.16;100898.47;5066796;28;20040;-75
2022/02/03 08:17:59;;;;;;;13.13;3.28;;;;;;;5.04;72.82;100896.06;5070602;28;20033;-76
2022/02/03 08:20:24;;;;;;;13.25;3.33;;;;;;;5.09;72.51;100883.09;5070627;28;20110;-75
2022/02/03 08:22:58;;;;;;;12.65;2.58;;;;;;;5.09;73.12;100890.94;5066753;28;20049;-75
2022/02/03 08:25:29;;;;;;;10.40;2.83;;;;;;;5.12;72.11;100881.41;5070058;28;20040;-76
2022/02/03 08:30:44;;;;;;;10.82;2.28;;;;;;;5.32;71.63;100883.56;5070602;28;20072;-75
2022/02/03 08:33:16;;;;;;;14.02;2.60;;;;;;;5.46;71.41;100884.75;5048092;28;20037;-75
2022/02/03 08:35:46;;;;;;;8.27;2.28;;;;;;;5.52;70.74;100882.22;5052358;28;20407;-75
2022/02/03 08:43:11;;;;;;;10.00;2.60;;;;;;;5.58;71.21;100881.47;5070993;28;20033;-76
2022/02/03 08:45:36;;;;;;;10.43;2.78;;;;;;;5.62;71.01;100873.72;5070759;28;20141;-76
2022/02/03 08:48:02;;;;;;;9.18;3.17;;;;;;;5.66;70.99;100878.16;5073905;28;20020;-76
2022/02/03 08:50:28;;;;;;;10.35;2.70;;;;;;;5.65;70.94;100871.13;5073856;28;20037;-76
2022/02/03 08:53:02;;;;;;;15.38;2.90;;;;;;;5.88;71.38;100878.56;5074002;28;20094;-76
2022/02/03 09:28:38;;;;;;;12.82;3.70;;;;;;;7.24;69.49;100836.09;5070278;28;20099;-76
2022/02/03 09:39:45;;;;;;;11.25;4.00;;;;;;;7.56;69.75;100839.97;5065248;28;20086;-76
2022/02/03 09:44:53;;;;;;;13.13;4.50;;;;;;;7.55;69.61;100835.59;5072308;28;20076;-75
2022/02/03 09:50:54;;;;;;;15.98;4.57;;;;;;;7.63;70.71;100819.03;5072360;28;20445;-76
2022/02/03 09:53:40;;;;;;;12.57;4.20;;;;;;;7.74;69.87;100823.53;5072199;28;20048;-76
2022/02/03 09:58:52;;;;;;;13.30;4.32;;;;;;;7.99;70.06;100814.13;5069236;28;20045;-76
2022/02/03 10:01:30;;;;;;;11.65;4.25;;;;;;;8.10;69.50;100804.59;5072142;28;20088;-75
2022/02/03 10:04:08;;;;;;;12.75;5.15;;;;;;;8.18;69.42;100804.66;5070689;28;20042;-76
2022/02/03 10:06:42;;;;;;;13.75;5.10;;;;;;;8.29;69.19;100805.63;5066299;28;20071;-75
2022/02/03 10:09:07;;;;;;;17.05;5.10;;;;;;;8.33;69.30;100800.41;5071979;28;20036;-76
2022/02/03 10:11:32;;;;;;;10.13;4.57;;;;;;;8.39;69.44;100798.69;5072212;28;20037;-76
2022/02/03 10:14:03;;;;;;;15.00;4.75;;;;;;;8.41;69.87;100802.22;5071626;28;20036;-76
2022/02/03 10:16:34;;;;;;;13.77;4.75;;;;;;;8.39;69.47;100790.78;5071075;28;20036;-76
2022/02/03 10:19:18;;;;;;;15.05;4.65;;;;;;;8.33;70.46;100788.97;5049244;28;20032;-76
2022/02/03 10:21:47;;;;;;;13.05;5.30;;;;;;;8.25;70.33;100788.03;5054015;28;20040;-76
2022/02/03 10:24:18;;;;;;;19.27;5.68;;;;;;;8.21;71.72;100787.16;5070294;28;20036;-76
2022/02/03 10:26:47;;;;;;;12.05;4.18;;;;;;;8.26;71.20;100774.91;5070000;28;20063;-76
2022/02/03 10:29:27;;;;;;;10.90;3.88;;;;;;;8.09;70.13;100781.78;5067402;28;20509;-75
2022/02/03 10:31:53;;;;;;;10.07;4.13;;;;;;;7.90;71.47;100775.50;5071375;28;20415;-76
2022/02/03 10:34:24;;;;;;;10.60;4.00;;;;;;;7.71;72.29;100776.22;5071421;28;20043;-76
2022/02/03 10:37:04;;;;;;;10.02;4.07;;;;;;;7.63;73.30;100763.88;5053242;28;20028;-76
2022/02/03 10:50:57;;;;;;;14.63;5.07;;;;;;;7.63;74.84;100752.50;5070668;28;20032;-75
2022/02/03 10:53:52;;;;;;;;;;;;;;;7.61;75.63;100752.47;5050433;28;20112;-76
2022/02/03 11:04:49;;;;;;;17.90;6.38;;;;;;;7.61;77.27;100741.09;5070733;28;20047;-75
2022/02/03 11:07:31;;;;;;;14.70;5.47;;;;;;;7.60;77.61;100736.72;5070804;28;20044;-76
2022/02/03 11:10:14;;;;;;;17.67;5.47;;;;;;;7.65;77.25;100729.72;5066809;28;20071;-76
2022/02/03 11:12:40;;;;;;;12.93;4.93;;;;;;;7.76;77.45;100721.97;5069092;28;20123;-76
2022/02/03 11:15:05;;;;;;;16.13;5.80;;;;;;;7.73;77.93;100720.19;5052829;28;20119;-76
2022/02/03 11:17:32;;;;;;;16.13;6.57;;;;;;;7.81;78.13;100718.50;5070201;28;20032;-75
2022/02/03 11:20:03;;;;;;;19.75;6.55;;;;;;;7.90;77.97;100712.44;5068939;28;20051;-76
2022/02/03 11:22:42;;;;;;;13.43;6.32;;;;;;;7.99;78.37;100719.50;5070646;28;20059;-76
2022/02/03 11:25:41;;;;;;;18.63;7.03;;;;;;;8.03;78.04;100710.78;5057854;28;20041;-76
2022/02/03 11:31:04;;;;;;;17.17;6.60;;;;;;;7.89;79.03;100703.69;5049740;28;20078;-75
2022/02/03 11:47:10;;;;;;;16.70;6.82;;;;;;;7.74;80.97;100703.56;5070716;28;20041;-76
2022/02/03 11:50:15;;;;;;;17.85;7.55;;;;;;;7.66;82.26;100698.22;5067124;28;20396;-77
2022/02/03 12:01:35;;;;;;;19.38;8.30;;;;;;;7.81;82.79;100667.72;5069806;28;20029;-76
2022/02/03 12:04:26;;;;;;;18.80;8.18;;;;;;;7.93;82.83;100677.41;5065334;28;20412;-76
2022/02/03 12:20:29;;;;;;;19.48;9.20;;;;;;;8.24;84.40;100658.34;5074252;28;20046;-76
2022/02/03 12:23:12;;;;;;;22.35;8.90;;;;;;;8.37;84.45;100647.88;5055628;28;20395;-76
2022/02/03 12:25:49;;;;;;;16.17;8.80;;;;;;;8.45;83.41;100641.81;5072941;28;20043;-76
2022/02/03 12:37:00;;;;;;;19.85;8.95;;;;;;;8.49;83.03;100629.56;5068598;28;20063;-76
2022/02/03 12:38:52;;;;;;;19.60;8.55;;;;;;;8.59;82.08;100622.56;5053420;28;20044;-76
2022/02/03 12:41:21;;;;;;;22.48;8.50;;;;;;;8.63;82.54;100622.59;5089366;28;20033;-73
2022/02/03 12:44:00;;;;;;;20.88;9.57;;;;;;;8.65;82.45;100617.34;5073835;28;20052;-74
2022/02/03 12:46:27;;;;;;;22.75;10.13;;;;;;;8.73;82.21;100612.97;5070074;28;20408;-74
2022/02/03 12:48:57;;;;;;;22.65;10.63;;;;;;;8.71;82.30;100607.69;5073835;28;20032;-74
2022/02/03 12:51:23;;;;;;;18.90;9.25;;;;;;;8.68;81.79;100606.81;5073762;28;20040;-74
2022/02/03 12:53:49;;;;;;;19.38;9.02;;;;;;;8.67;82.19;100594.53;5055688;28;20134;-74
2022/02/03 12:56:18;;;;;;;22.15;9.02;;;;;;;8.61;82.75;100595.38;5073132;28;20068;-73
2022/02/03 12:58:46;;;;;;;19.75;7.60;;;;;;;8.60;82.61;100591.00;5073766;28;20029;-74
2022/02/03 13:01:17;;;;;;;30.90;20.05;;;;;;;8.56;83.18;100597.13;5073643;28;20460;-73
2022/02/03 13:03:49;;;;;;;14.23;7.67;;;;;;;8.60;82.47;100593.66;5073539;28;20044;-73
2022/02/03 13:06:21;;;;;;;18.35;7.82;;;;;;;8.57;83.36;100588.38;5073104;28;20051;-73
2022/02/03 13:08:50;;;;;;;14.80;5.90;;;;;;;8.66;82.31;100590.16;5070838;28;20055;-74
2022/02/03 13:11:31;;;;;;;11.85;6.30;;;;;;;8.59;83.34;100586.59;5054616;28;20111;-74
2022/02/03 13:14:15;;;;;;;13.65;6.68;;;;;;;8.68;83.22;100589.28;5071506;28;20169;-74
2022/02/03 13:17:09;;;;;;;14.00;6.10;;;;;;;8.71;82.93;100584.00;5035934;28;20043;-74
2022/02/03 13:27:25;;;;;;;13.18;6.75;;;;;;;8.68;83.25;100576.13;5070609;28;20040;-73
2022/02/03 13:30:00;;;;;;;19.00;8.03;;;;;;;8.64;83.38;100561.19;5072132;28;20037;-73
2022/02/03 13:32:33;;;;;;;16.35;7.85;;;;;;;8.69;83.59;100566.47;5070621;28;20279;-73
2022/02/03 13:35:06;;;;;;;21.05;9.60;;;;;;;8.67;83.51;100563.84;5072568;28;20036;-73
2022/02/03 13:37:42;;;;;;;11.68;5.82;;;;;;;8.71;83.58;100555.06;5072794;28;20060;-73
2022/02/03 13:40:10;;;;;;;16.63;8.32;;;;;;;8.68;83.16;100549.81;5054648;28;20036;-73
2022/02/03 13:42:37;;;;;;;18.38;7.65;;;;;;;8.62;84.07;100541.00;5056155;28;20101;-74
2022/02/03 13:45:05;;;;;;;12.00;6.45;;;;;;;8.50;84.42;100547.13;5063536;28;20058;-74
2022/02/03 13:47:35;;;;;;;9.75;6.60;;;;;;;8.53;84.26;100540.13;5072330;28;20547;-73
2022/02/03 13:50:06;;;;;;;11.27;5.72;;;;;;;8.59;84.00;100547.16;5072285;28;20028;-73
2022/02/03 13:52:40;;;;;;;20.40;6.93;;;;;;;8.58;83.94;100540.13;5071926;28;20373;-74
2022/02/03 14:15:17;;;;;;;12.38;6.30;;;;;;;8.68;85.21;100514.72;5050034;28;20039;-73
2022/02/03 14:28:16;;;;;;;13.75;6.35;;;;;;;8.77;84.99;100494.56;5052341;28;20093;-74
2022/02/03 14:30:46;;;;;;;11.43;7.43;;;;;;;8.76;84.96;100490.19;5071965;28;20036;-74
2022/02/03 14:33:13;;;;;;;13.15;6.72;;;;;;;8.76;85.21;100495.44;5068636;28;20040;-74
2022/02/03 14:35:39;;;;;;;14.80;7.00;;;;;;;8.77;85.19;100497.19;5071200;28;20077;-73
2022/02/03 14:38:16;;;;;;;12.82;6.68;;;;;;;8.77;85.68;100486.66;5071849;28;20115;-74
2022/02/03 14:43:26;;;;;;;13.75;8.35;;;;;;;8.91;84.64;100473.53;5050488;28;20133;-73
2022/02/03 14:45:52;;;;;;;14.70;7.93;;;;;;;8.91;84.49;100473.53;5071239;28;20036;-74
2022/02/03 14:48:18;;;;;;;13.43;6.75;;;;;;;8.89;83.98;100482.28;5053620;28;20051;-73
2022/02/03 14:50:43;;;;;;;10.85;6.60;;;;;;;8.89;84.06;100477.03;5071055;28;20040;-74
2022/02/03 14:53:17;;;;;;;11.73;5.80;;;;;;;8.81;84.10;100477.03;5047625;28;20116;-73
2022/02/03 14:58:28;;;;;;;15.82;6.90;;;;;;;8.76;84.45;100469.13;5069354;28;20037;-74
2022/02/03 15:00:56;;;;;;;10.57;5.60;;;;;;;8.78;84.83;100470.00;5071457;28;20036;-74
2022/02/03 15:03:23;;;;;;;11.88;6.30;;;;;;;8.80;84.34;100464.72;5067611;28;20444;-74
2022/02/03 15:05:49;;;;;;;10.20;6.47;;;;;;;8.80;84.63;100463.84;5071032;28;20040;-74
2022/02/03 15:08:18;;;;;;;12.43;7.78;;;;;;;8.72;84.48;100467.38;5070831;28;20047;-74
2022/02/03 15:11:05;;;;;;;13.30;8.23;;;;;;;8.68;84.57;100464.75;5070904;28;20188;-74
2022/02/03 15:13:36;;;;;;;14.27;9.07;;;;;;;8.58;84.91;100461.22;5070934;28;20177;-74
2022/02/03 15:16:03;;;;;;;13.13;8.82;;;;;;;8.56;85.44;100452.44;5071044;28;20036;-73
2022/02/03 15:18:29;;;;;;;14.07;9.43;;;;;;;8.55;85.50;100453.34;5071452;28;20399;-74
2022/02/03 15:20:55;;;;;;;12.70;8.13;;;;;;;8.55;85.87;100453.34;5071474;28;20041;-73
2022/02/03 15:23:20;;;;;;;12.20;6.47;;;;;;;8.53;85.86;100445.44;5071374;28;20138;-74
2022/02/03 15:25:45;;;;;;;16.38;10.15;;;;;;;8.53;86.32;100439.28;5070504;28;20111;-75
2022/02/03 15:28:11;;;;;;;12.30;8.35;;;;;;;8.60;86.87;100446.31;5070676;28;20401;-73
2022/02/03 15:30:36;;;;;;;13.52;7.30;;;;;;;8.59;85.99;100431.41;5070946;28;20071;-74
2022/02/03 15:33:02;;;;;;;9.60;7.25;;;;;;;8.53;86.35;100429.66;5071057;28;20068;-74
2022/02/03 15:35:37;;;;;;;8.77;5.18;;;;;;;8.52;86.02;100432.28;5070663;28;20036;-74
2022/02/03 15:38:04;;;;;;;9.82;5.38;;;;;;;8.49;86.47;100432.28;5070784;28;20043;-74
2022/02/03 15:40:31;;;;;;;7.65;5.43;;;;;;;8.44;85.81;100429.66;5064027;28;20169;-74
2022/02/03 15:45:34;;;;;;;10.30;6.05;;;;;;;8.46;86.17;100422.66;5070621;28;20068;-74
2022/02/03 15:48:05;;;;;;;9.10;5.47;;;;;;;8.40;85.54;100422.63;5067634;28;20036;-73
2022/02/03 15:51:24;;;;;;;9.20;5.68;;;;;;;8.39;85.88;100423.50;5069664;28;20043;-73
2022/02/03 15:56:27;;;;;;;8.90;5.43;;;;;;;8.34;85.83;100412.06;5072084;28;20070;-74
2022/02/03 16:01:52;;;;;;;8.32;5.43;;;;;;;8.28;86.21;100409.44;5072830;28;20118;-73
2022/02/03 16:16:21;;;;;;;6.60;4.80;;;;;;;8.16;86.99;100409.41;5073738;28;20037;-74
2022/02/03 16:18:02;;;;;;;8.10;4.88;;;;;;;8.17;86.93;100411.16;5073134;28;20098;-74
2022/02/03 16:20:34;;;;;;;8.50;5.40;;;;;;;8.19;86.95;100407.66;5070613;28;20102;-74
2022/02/03 16:26:33;;;;;;;10.63;5.97;;;;;;;8.15;87.10;100403.28;5083860;28;20038;-74
2022/02/03 16:43:11;;;;;;;7.80;6.10;;;;;;;8.11;86.97;100398.91;5081893;28;20033;-74
2022/02/03 16:53:00;;;;;;;7.35;5.55;;;;;;;8.16;86.69;100393.66;5065091;28;20385;-74
2022/02/03 16:55:31;;;;;;;8.90;5.28;;;;;;;8.16;86.61;100394.53;5082513;28;20047;-74
2022/02/03 16:57:57;;;;;;;7.10;5.40;;;;;;;8.17;86.60;100398.03;5069396;28;20032;-74
2022/02/03 17:00:24;;;;;;;9.10;5.70;;;;;;;8.15;87.01;100395.41;5055805;28;20111;-74
2022/02/03 17:02:51;;;;;;;8.10;5.07;;;;;;;8.20;87.03;100391.03;5073786;28;20024;-74
2022/02/03 17:05:17;;;;;;;8.45;6.10;;;;;;;8.23;87.02;100393.66;5073133;28;20058;-74
2022/02/03 17:07:42;;;;;;;8.43;6.03;;;;;;;8.24;86.46;100395.41;5073394;28;20484;-74
2022/02/03 17:10:08;;;;;;;8.93;6.40;;;;;;;8.23;86.80;100395.41;5069711;28;20127;-74
2022/02/03 17:12:33;;;;;;;8.82;6.00;;;;;;;8.22;86.51;100393.66;5073360;28;20103;-74
2022/02/03 17:14:58;;;;;;;7.82;5.50;;;;;;;8.22;87.04;100385.75;5073206;28;20071;-74
2022/02/03 17:17:25;;;;;;;8.98;6.53;;;;;;;8.20;86.50;100387.50;5073373;28;20083;-74
2022/02/03 17:19:51;;;;;;;8.77;6.07;;;;;;;8.15;86.55;100387.53;5038811;28;20134;-74
2022/02/03 17:22:27;;;;;;;8.38;6.22;;;;;;;8.13;86.63;100391.91;5055395;28;20500;-72
2022/02/03 17:25:19;;;;;;;8.85;6.00;;;;;;;8.06;86.70;100384.88;5073026;28;20032;-74
2022/02/03 17:27:45;;;;;;;9.23;6.20;;;;;;;8.11;87.32;100383.13;5052932;28;20048;-74
2022/02/03 17:30:20;;;;;;;9.00;6.57;;;;;;;8.09;86.86;100377.84;5069591;28;20523;-73
2022/02/03 18:19:36;;;;;;;8.52;6.10;;;;;;;8.10;85.87;100371.75;5069149;28;20082;-75
2022/02/03 18:32:37;;;;;;;9.23;6.22;;;;;;;8.14;85.49;100369.97;5069517;28;20492;-75
2022/02/03 18:49:32;;;;;;;8.63;5.47;;;;;;;8.13;83.83;100344.56;5052167;28;20414;-72
2022/02/03 18:51:24;;;;;;;7.75;5.03;;;;;;;8.18;84.20;100327.06;5069555;28;20051;-72
2022/02/03 18:56:29;;;;;;;8.98;5.45;;;;;;;8.15;83.74;100329.69;5070905;28;20036;-73
2022/02/03 18:59:07;;;;;;;7.05;5.10;;;;;;;8.06;83.52;100327.03;5067995;28;20396;-73
2022/02/03 19:10:37;;;;;;;7.60;5.38;;;;;;;8.20;82.76;100322.69;5016735;28;20041;-74
2022/02/03 19:21:19;;;;;;;8.18;5.95;;;;;;;8.29;82.36;100309.53;5067320;28;20067;-74
2022/02/03 19:57:29;;;;;;;10.00;5.93;;;;;;;8.27;82.00;100290.22;5067098;28;20043;-74
2022/02/03 20:05:17;;;;;;;11.48;7.45;;;;;;;8.19;81.79;100281.47;5067603;28;20071;-74
2022/02/03 20:07:55;;;;;;;10.35;6.80;;;;;;;8.08;82.66;100278.84;5036076;28;20040;-74
2022/02/03 20:10:31;;;;;;;9.13;6.35;;;;;;;8.14;82.29;100277.97;5052731;28;20036;-74
2022/02/03 20:12:57;;;;;;;10.90;6.65;;;;;;;8.22;82.62;100275.34;5068172;28;20052;-74
2022/02/03 20:15:24;;;;;;;11.45;7.82;;;;;;;8.20;82.05;100267.47;5070376;28;20041;-73
2022/02/03 20:17:49;;;;;;;11.43;7.70;;;;;;;8.16;82.48;100265.72;5069290;28;20388;-73
2022/02/03 20:20:15;;;;;;;10.05;7.68;;;;;;;8.19;81.85;100265.69;5070641;28;20036;-73
2022/02/03 20:22:40;;;;;;;9.10;6.68;;;;;;;8.20;82.23;100259.59;5070261;28;20476;-74
2022/02/03 20:25:07;;;;;;;10.48;7.85;;;;;;;8.21;82.14;100257.81;5070128;28;20127;-74
2022/02/03 20:27:33;;;;;;;10.98;7.70;;;;;;;8.20;81.88;100251.69;5070028;28;20041;-73
2022/02/03 20:29:59;;;;;;;13.07;8.18;;;;;;;8.19;82.18;100255.19;5070704;28;20086;-74
2022/02/03 20:32:25;;;;;;;10.45;8.00;;;;;;;8.16;82.04;100257.81;5070618;28;20488;-74
2022/02/03 20:34:51;;;;;;;10.55;8.07;;;;;;;8.17;82.14;100254.31;5070260;28;20051;-74
2022/02/03 20:37:16;;;;;;;11.82;8.82;;;;;;;8.16;82.10;100257.81;5070465;28;20044;-73
2022/02/03 20:39:43;;;;;;;12.70;9.05;;;;;;;8.17;82.40;100254.31;5067949;28;20040;-73
2022/02/03 20:42:11;;;;;;;14.02;9.23;;;;;;;8.09;82.43;100249.06;5055895;28;20407;-73
2022/02/03 20:44:37;;;;;;;10.40;7.88;;;;;;;7.99;82.31;100249.97;5073715;28;20063;-73
2022/02/03 20:47:02;;;;;;;11.05;8.95;;;;;;;7.97;82.89;100246.44;5073941;28;20411;-74
2022/02/03 20:49:28;;;;;;;12.73;8.60;;;;;;;8.05;82.77;100242.06;5033373;28;20060;-73
2022/02/03 20:51:55;;;;;;;12.75;9.05;;;;;;;8.02;82.47;100242.06;5073375;28;20052;-74
2022/02/03 20:54:20;;;;;;;12.07;8.65;;;;;;;8.04;82.69;100239.41;5073449;28;20029;-73
2022/02/03 20:56:47;;;;;;;11.80;8.88;;;;;;;8.03;82.63;100243.81;5073464;28;20513;-73
2022/02/03 20:59:13;;;;;;;13.20;8.38;;;;;;;8.06;82.29;100235.03;5063834;28;20399;-73
2022/02/03 21:01:40;;;;;;;12.18;8.65;;;;;;;8.03;82.57;100232.44;5073789;28;20040;-73
2022/02/03 21:04:11;;;;;;;12.23;8.90;;;;;;;7.99;82.20;100228.03;5073336;28;20037;-73